Dover, Oregon
Current Conditions -  °F | °C
As of 2:53 AM on Thursday 18 Dec 2014 (Local Time) from KTTD Reporting Station
Overcast Overcast  
Wind Chill: 35°   Ceiling: 4100
Heat Index: 43°   Visibility: 10mi
Dew Point: 38°   Wind: 16mph
Humidity: 82%   Direction: 80°E
Pressure: 29.98"   Gusts: 24mph
Location:  45.3467°N, 122.335°W
Report Text: KTTD 181053Z AUTO 08014G21KT 10SM BKN041 OVC080 06/03 A2998 RMK AO2 SLP151 T00610033
Loading
Personal Weather Stations






























Interactive Weather Map New forecast layout! Learn more

10-Day Weather Forecast

Advertisements
Track Severe Weather on mobile